sensor_id;sensor_type;location;lat;lon;timestamp;temperature;humidity
19025;DHT22;9645;51.448;6.260;2022-11-15T00:02:17;8.30;99.90
19025;DHT22;9645;51.448;6.260;2022-11-15T00:04:44;8.30;99.90
19025;DHT22;9645;51.448;6.260;2022-11-15T00:07:13;8.30;99.90
19025;DHT22;9645;51.448;6.260;2022-11-15T00:09:40;8.50;99.90
19025;DHT22;9645;51.448;6.260;2022-11-15T00:12:07;8.50;99.90
19025;DHT22;9645;51.448;6.260;2022-11-15T00:14:33;8.50;99.90
19025;DHT22;9645;51.448;6.260;2022-11-15T00:17:00;8.40;99.90
19025;DHT22;9645;51.448;6.260;2022-11-15T00:19:27;8.40;99.90
19025;DHT22;9645;51.448;6.260;2022-11-15T00:21:54;8.40;99.90
19025;DHT22;9645;51.448;6.260;2022-11-15T00:24:23;8.50;99.90
19025;DHT22;9645;51.448;6.260;2022-11-15T00:26:49;8.40;99.90
19025;DHT22;9645;51.448;6.260;2022-11-15T00:29:16;8.50;99.90
19025;DHT22;9645;51.448;6.260;2022-11-15T00:31:43;8.60;99.90
19025;DHT22;9645;51.448;6.260;2022-11-15T00:34:10;8.60;99.90
19025;DHT22;9645;51.448;6.260;2022-11-15T00:36:37;8.50;99.90
19025;DHT22;9645;51.448;6.260;2022-11-15T00:39:04;8.60;99.90
19025;DHT22;9645;51.448;6.260;2022-11-15T00:41:33;8.60;99.90
19025;DHT22;9645;51.448;6.260;2022-11-15T00:44:00;8.60;99.90
19025;DHT22;9645;51.448;6.260;2022-11-15T00:46:27;8.60;99.90
19025;DHT22;9645;51.448;6.260;2022-11-15T00:48:54;8.60;99.90
19025;DHT22;9645;51.448;6.260;2022-11-15T00:51:21;8.70;99.90
19025;DHT22;9645;51.448;6.260;2022-11-15T00:53:47;8.70;99.90
19025;DHT22;9645;51.448;6.260;2022-11-15T00:56:14;8.70;99.90
19025;DHT22;9645;51.448;6.260;2022-11-15T00:58:43;9.10;99.90
19025;DHT22;9645;51.448;6.260;2022-11-15T01:01:11;8.80;99.90
19025;DHT22;9645;51.448;6.260;2022-11-15T01:03:39;8.80;99.90
19025;DHT22;9645;51.448;6.260;2022-11-15T01:06:08;8.80;99.90
19025;DHT22;9645;51.448;6.260;2022-11-15T01:08:35;8.80;99.90
19025;DHT22;9645;51.448;6.260;2022-11-15T01:11:03;8.90;99.90
19025;DHT22;9645;51.448;6.260;2022-11-15T01:13:31;8.90;99.90
19025;DHT22;9645;51.448;6.260;2022-11-15T01:16:04;8.90;99.90
19025;DHT22;9645;51.448;6.260;2022-11-15T01:18:32;8.90;99.90
19025;DHT22;9645;51.448;6.260;2022-11-15T01:20:59;8.90;99.90
19025;DHT22;9645;51.448;6.260;2022-11-15T01:23:26;8.90;99.90
19025;DHT22;9645;51.448;6.260;2022-11-15T01:25:53;8.90;99.90
19025;DHT22;9645;51.448;6.260;2022-11-15T01:28:24;8.90;99.90
19025;DHT22;9645;51.448;6.260;2022-11-15T01:30:51;8.90;99.90
19025;DHT22;9645;51.448;6.260;2022-11-15T01:33:19;9.00;99.90
19025;DHT22;9645;51.448;6.260;2022-11-15T01:35:46;9.00;99.90
19025;DHT22;9645;51.448;6.260;2022-11-15T01:38:13;9.00;99.90
19025;DHT22;9645;51.448;6.260;2022-11-15T01:40:40;9.10;99.90
19025;DHT22;9645;51.448;6.260;2022-11-15T01:43:22;9.10;99.90
19025;DHT22;9645;51.448;6.260;2022-11-15T01:45:51;9.10;99.90
19025;DHT22;9645;51.448;6.260;2022-11-15T01:48:21;9.10;99.90
19025;DHT22;9645;51.448;6.260;2022-11-15T01:50:49;9.10;99.90
19025;DHT22;9645;51.448;6.260;2022-11-15T01:53:17;9.10;99.90
19025;DHT22;9645;51.448;6.260;2022-11-15T01:55:46;9.20;99.90
19025;DHT22;9645;51.448;6.260;2022-11-15T01:58:13;9.20;99.90
19025;DHT22;9645;51.448;6.260;2022-11-15T02:00:40;9.20;99.90
19025;DHT22;9645;51.448;6.260;2022-11-15T02:03:07;9.30;99.90
19025;DHT22;9645;51.448;6.260;2022-11-15T02:05:36;9.30;99.90
19025;DHT22;9645;51.448;6.260;2022-11-15T02:08:04;9.30;99.90
19025;DHT22;9645;51.448;6.260;2022-11-15T02:10:32;9.30;99.90
19025;DHT22;9645;51.448;6.260;2022-11-15T02:12:59;9.40;99.90
19025;DHT22;9645;51.448;6.260;2022-11-15T02:15:33;9.50;99.90
19025;DHT22;9645;51.448;6.260;2022-11-15T02:18:10;9.50;99.90
19025;DHT22;9645;51.448;6.260;2022-11-15T02:27:05;9.70;99.90
19025;DHT22;9645;51.448;6.260;2022-11-15T02:29:53;9.70;99.90
19025;DHT22;9645;51.448;6.260;2022-11-15T02:32:31;9.80;99.90
19025;DHT22;9645;51.448;6.260;2022-11-15T02:35:05;9.70;99.90
19025;DHT22;9645;51.448;6.260;2022-11-15T02:37:43;9.80;99.90
19025;DHT22;9645;51.448;6.260;2022-11-15T02:40:15;9.80;99.90
19025;DHT22;9645;51.448;6.260;2022-11-15T02:42:50;9.80;99.90
19025;DHT22;9645;51.448;6.260;2022-11-15T02:45:40;9.80;99.90
19025;DHT22;9645;51.448;6.260;2022-11-15T02:48:11;9.80;99.90
19025;DHT22;9645;51.448;6.260;2022-11-15T02:50:39;9.90;99.90
19025;DHT22;9645;51.448;6.260;2022-11-15T02:53:07;9.90;99.90
19025;DHT22;9645;51.448;6.260;2022-11-15T02:55:36;9.90;99.90
19025;DHT22;9645;51.448;6.260;2022-11-15T02:58:31;9.90;99.90
19025;DHT22;9645;51.448;6.260;2022-11-15T03:01:05;9.90;99.90
19025;DHT22;9645;51.448;6.260;2022-11-15T03:03:52;10.00;99.90
19025;DHT22;9645;51.448;6.260;2022-11-15T03:06:30;10.00;99.90
19025;DHT22;9645;51.448;6.260;2022-11-15T03:09:04;10.00;99.90
19025;DHT22;9645;51.448;6.260;2022-11-15T03:11:37;10.00;99.90
19025;DHT22;9645;51.448;6.260;2022-11-15T03:14:13;10.00;99.90
19025;DHT22;9645;51.448;6.260;2022-11-15T03:16:48;10.00;99.90
19025;DHT22;9645;51.448;6.260;2022-11-15T03:19:23;10.00;99.90
19025;DHT22;9645;51.448;6.260;2022-11-15T03:21:55;10.10;99.90
19025;DHT22;9645;51.448;6.260;2022-11-15T03:24:23;10.10;99.90
19025;DHT22;9645;51.448;6.260;2022-11-15T03:26:52;10.10;99.90
19025;DHT22;9645;51.448;6.260;2022-11-15T03:29:22;10.10;99.90
19025;DHT22;9645;51.448;6.260;2022-11-15T03:31:54;10.20;99.90
19025;DHT22;9645;51.448;6.260;2022-11-15T03:34:27;10.20;99.90
19025;DHT22;9645;51.448;6.260;2022-11-15T03:36:56;10.20;99.90
19025;DHT22;9645;51.448;6.260;2022-11-15T03:39:23;10.10;99.90
19025;DHT22;9645;51.448;6.260;2022-11-15T03:42:00;10.20;99.90
19025;DHT22;9645;51.448;6.260;2022-11-15T03:44:36;10.20;99.90
19025;DHT22;9645;51.448;6.260;2022-11-15T03:47:09;10.10;99.90
19025;DHT22;9645;51.448;6.260;2022-11-15T03:49:44;10.10;99.90
19025;DHT22;9645;51.448;6.260;2022-11-15T03:52:12;10.10;99.90
19025;DHT22;9645;51.448;6.260;2022-11-15T03:54:48;10.10;99.90
19025;DHT22;9645;51.448;6.260;2022-11-15T03:57:20;10.10;99.90
19025;DHT22;9645;51.448;6.260;2022-11-15T03:59:48;10.00;99.90
19025;DHT22;9645;51.448;6.260;2022-11-15T04:02:16;10.00;99.90
19025;DHT22;9645;51.448;6.260;2022-11-15T04:04:45;10.00;99.90
19025;DHT22;9645;51.448;6.260;2022-11-15T04:07:12;10.00;99.90
19025;DHT22;9645;51.448;6.260;2022-11-15T04:09:39;10.10;99.90
19025;DHT22;9645;51.448;6.260;2022-11-15T04:12:20;10.00;99.90
19025;DHT22;9645;51.448;6.260;2022-11-15T04:14:56;10.10;99.90
19025;DHT22;9645;51.448;6.260;2022-11-15T04:17:34;10.10;99.90
19025;DHT22;9645;51.448;6.260;2022-11-15T04:20:04;10.20;99.90
19025;DHT22;9645;51.448;6.260;2022-11-15T04:22:48;10.10;99.90
19025;DHT22;9645;51.448;6.260;2022-11-15T04:25:33;10.20;99.90
19025;DHT22;9645;51.448;6.260;2022-11-15T04:28:00;10.20;99.90
19025;DHT22;9645;51.448;6.260;2022-11-15T04:30:27;10.20;99.90
19025;DHT22;9645;51.448;6.260;2022-11-15T04:32:54;10.30;99.90
19025;DHT22;9645;51.448;6.260;2022-11-15T04:35:22;10.20;99.90
19025;DHT22;9645;51.448;6.260;2022-11-15T04:37:49;10.30;99.90
19025;DHT22;9645;51.448;6.260;2022-11-15T04:40:16;10.30;99.90
19025;DHT22;9645;51.448;6.260;2022-11-15T04:42:43;10.30;99.90
19025;DHT22;9645;51.448;6.260;2022-11-15T04:45:10;10.30;99.90
19025;DHT22;9645;51.448;6.260;2022-11-15T04:47:37;10.40;99.90
19025;DHT22;9645;51.448;6.260;2022-11-15T04:50:05;10.40;99.90
19025;DHT22;9645;51.448;6.260;2022-11-15T04:52:33;10.40;99.90
19025;DHT22;9645;51.448;6.260;2022-11-15T04:55:00;10.40;99.90
19025;DHT22;9645;51.448;6.260;2022-11-15T04:57:27;10.40;99.90
19025;DHT22;9645;51.448;6.260;2022-11-15T04:59:54;10.40;99.90
19025;DHT22;9645;51.448;6.260;2022-11-15T05:02:21;10.40;99.90
19025;DHT22;9645;51.448;6.260;2022-11-15T05:04:49;10.40;99.90
19025;DHT22;9645;51.448;6.260;2022-11-15T05:07:14;10.40;99.90
19025;DHT22;9645;51.448;6.260;2022-11-15T05:09:43;10.40;99.90
19025;DHT22;9645;51.448;6.260;2022-11-15T05:12:10;10.40;99.90
19025;DHT22;9645;51.448;6.260;2022-11-15T05:14:37;10.40;99.90
19025;DHT22;9645;51.448;6.260;2022-11-15T05:17:04;10.40;99.90
19025;DHT22;9645;51.448;6.260;2022-11-15T05:19:31;10.50;99.90
19025;DHT22;9645;51.448;6.260;2022-11-15T05:22:02;10.50;99.90
19025;DHT22;9645;51.448;6.260;2022-11-15T05:24:29;10.50;99.90
19025;DHT22;9645;51.448;6.260;2022-11-15T05:26:57;10.60;99.90
19025;DHT22;9645;51.448;6.260;2022-11-15T05:29:25;10.60;99.90
19025;DHT22;9645;51.448;6.260;2022-11-15T05:31:52;10.60;99.90
19025;DHT22;9645;51.448;6.260;2022-11-15T05:34:19;10.60;99.90
19025;DHT22;9645;51.448;6.260;2022-11-15T05:36:49;10.60;99.90
19025;DHT22;9645;51.448;6.260;2022-11-15T05:39:16;10.60;99.90
19025;DHT22;9645;51.448;6.260;2022-11-15T05:41:45;10.60;99.90
19025;DHT22;9645;51.448;6.260;2022-11-15T05:44:17;10.60;99.90
19025;DHT22;9645;51.448;6.260;2022-11-15T05:46:45;10.50;99.90
19025;DHT22;9645;51.448;6.260;2022-11-15T05:49:15;10.50;99.90
19025;DHT22;9645;51.448;6.260;2022-11-15T05:51:47;10.50;99.90
19025;DHT22;9645;51.448;6.260;2022-11-15T05:54:16;10.50;99.90
19025;DHT22;9645;51.448;6.260;2022-11-15T05:56:47;10.50;99.90
19025;DHT22;9645;51.448;6.260;2022-11-15T05:59:31;10.50;99.90
19025;DHT22;9645;51.448;6.260;2022-11-15T06:02:00;10.50;99.90
19025;DHT22;9645;51.448;6.260;2022-11-15T06:04:27;10.40;99.90
19025;DHT22;9645;51.448;6.260;2022-11-15T06:06:54;10.50;99.90
19025;DHT22;9645;51.448;6.260;2022-11-15T06:09:21;10.50;99.90
19025;DHT22;9645;51.448;6.260;2022-11-15T06:11:48;10.50;99.90
19025;DHT22;9645;51.448;6.260;2022-11-15T06:14:15;10.50;99.90
19025;DHT22;9645;51.448;6.260;2022-11-15T06:16:43;10.50;99.90
19025;DHT22;9645;51.448;6.260;2022-11-15T06:19:10;10.60;99.90
19025;DHT22;9645;51.448;6.260;2022-11-15T06:21:37;10.60;99.90
19025;DHT22;9645;51.448;6.260;2022-11-15T06:24:05;10.70;99.90
19025;DHT22;9645;51.448;6.260;2022-11-15T06:26:32;10.60;99.90
19025;DHT22;9645;51.448;6.260;2022-11-15T06:28:59;10.70;99.90
19025;DHT22;9645;51.448;6.260;2022-11-15T06:31:26;10.70;99.90
19025;DHT22;9645;51.448;6.260;2022-11-15T06:33:55;10.70;99.90
19025;DHT22;9645;51.448;6.260;2022-11-15T06:36:21;10.70;99.90
19025;DHT22;9645;51.448;6.260;2022-11-15T06:38:48;10.70;99.90
19025;DHT22;9645;51.448;6.260;2022-11-15T06:41:16;10.70;99.90
19025;DHT22;9645;51.448;6.260;2022-11-15T06:43:43;10.60;99.90
19025;DHT22;9645;51.448;6.260;2022-11-15T06:46:10;10.70;99.90
19025;DHT22;9645;51.448;6.260;2022-11-15T06:48:38;10.70;99.90
19025;DHT22;9645;51.448;6.260;2022-11-15T06:51:06;10.70;99.90
19025;DHT22;9645;51.448;6.260;2022-11-15T06:53:33;10.70;99.90
19025;DHT22;9645;51.448;6.260;2022-11-15T06:56:01;10.70;99.90
19025;DHT22;9645;51.448;6.260;2022-11-15T06:58:29;10.70;99.90
19025;DHT22;9645;51.448;6.260;2022-11-15T07:01:01;10.70;99.90
19025;DHT22;9645;51.448;6.260;2022-11-15T07:03:28;10.70;99.90
19025;DHT22;9645;51.448;6.260;2022-11-15T07:05:56;10.80;99.90
19025;DHT22;9645;51.448;6.260;2022-11-15T07:08:27;10.80;99.90
19025;DHT22;9645;51.448;6.260;2022-11-15T07:10:54;10.80;99.90
19025;DHT22;9645;51.448;6.260;2022-11-15T07:13:24;10.90;99.90
19025;DHT22;9645;51.448;6.260;2022-11-15T07:15:51;11.00;99.90
19025;DHT22;9645;51.448;6.260;2022-11-15T07:18:18;11.00;99.90
19025;DHT22;9645;51.448;6.260;2022-11-15T07:20:45;11.00;99.90
19025;DHT22;9645;51.448;6.260;2022-11-15T07:23:12;11.00;99.90
19025;DHT22;9645;51.448;6.260;2022-11-15T07:25:41;10.90;99.90
19025;DHT22;9645;51.448;6.260;2022-11-15T07:28:07;11.00;99.90
19025;DHT22;9645;51.448;6.260;2022-11-15T07:30:34;10.90;99.90
19025;DHT22;9645;51.448;6.260;2022-11-15T07:33:01;10.90;99.90
19025;DHT22;9645;51.448;6.260;2022-11-15T07:35:29;10.90;99.90
19025;DHT22;9645;51.448;6.260;2022-11-15T07:37:57;11.00;99.90
19025;DHT22;9645;51.448;6.260;2022-11-15T07:40:25;11.00;99.90
19025;DHT22;9645;51.448;6.260;2022-11-15T07:42:58;11.00;99.90
19025;DHT22;9645;51.448;6.260;2022-11-15T07:45:25;11.00;99.90
19025;DHT22;9645;51.448;6.260;2022-11-15T07:47:54;11.00;99.90
19025;DHT22;9645;51.448;6.260;2022-11-15T07:50:23;11.00;99.90
19025;DHT22;9645;51.448;6.260;2022-11-15T07:52:54;11.10;99.90
19025;DHT22;9645;51.448;6.260;2022-11-15T07:55:22;11.00;99.90
19025;DHT22;9645;51.448;6.260;2022-11-15T07:57:49;11.00;99.90
19025;DHT22;9645;51.448;6.260;2022-11-15T08:00:18;11.00;99.90
19025;DHT22;9645;51.448;6.260;2022-11-15T08:02:45;11.00;99.90
19025;DHT22;9645;51.448;6.260;2022-11-15T08:05:12;11.00;99.90
19025;DHT22;9645;51.448;6.260;2022-11-15T08:07:40;11.00;99.90
19025;DHT22;9645;51.448;6.260;2022-11-15T08:10:07;11.00;99.90
19025;DHT22;9645;51.448;6.260;2022-11-15T08:12:34;11.00;99.90
19025;DHT22;9645;51.448;6.260;2022-11-15T08:15:01;11.00;99.90
19025;DHT22;9645;51.448;6.260;2022-11-15T08:17:30;11.00;99.90
19025;DHT22;9645;51.448;6.260;2022-11-15T08:19:59;11.00;99.90
19025;DHT22;9645;51.448;6.260;2022-11-15T08:22:26;11.00;99.90
19025;DHT22;9645;51.448;6.260;2022-11-15T08:24:53;11.10;99.90
19025;DHT22;9645;51.448;6.260;2022-11-15T08:27:20;11.00;99.90
19025;DHT22;9645;51.448;6.260;2022-11-15T08:29:48;11.10;99.90
19025;DHT22;9645;51.448;6.260;2022-11-15T08:32:16;11.10;99.90
19025;DHT22;9645;51.448;6.260;2022-11-15T08:34:44;11.20;99.90
19025;DHT22;9645;51.448;6.260;2022-11-15T08:37:11;11.20;99.90
19025;DHT22;9645;51.448;6.260;2022-11-15T08:39:38;11.30;99.90
19025;DHT22;9645;51.448;6.260;2022-11-15T08:42:05;11.30;99.90
19025;DHT22;9645;51.448;6.260;2022-11-15T08:44:32;11.30;99.90
19025;DHT22;9645;51.448;6.260;2022-11-15T08:46:59;11.40;99.90
19025;DHT22;9645;51.448;6.260;2022-11-15T08:49:26;11.50;99.90
19025;DHT22;9645;51.448;6.260;2022-11-15T08:51:54;11.60;99.90
19025;DHT22;9645;51.448;6.260;2022-11-15T08:54:21;11.70;99.90
19025;DHT22;9645;51.448;6.260;2022-11-15T08:56:48;11.70;99.90
19025;DHT22;9645;51.448;6.260;2022-11-15T08:59:15;11.80;99.90
19025;DHT22;9645;51.448;6.260;2022-11-15T09:01:42;12.20;99.90
19025;DHT22;9645;51.448;6.260;2022-11-15T09:04:09;12.70;99.90
19025;DHT22;9645;51.448;6.260;2022-11-15T09:06:36;13.00;99.90
19025;DHT22;9645;51.448;6.260;2022-11-15T09:09:04;13.10;99.90
19025;DHT22;9645;51.448;6.260;2022-11-15T09:11:31;12.90;99.90
19025;DHT22;9645;51.448;6.260;2022-11-15T09:13:58;12.70;99.90
19025;DHT22;9645;51.448;6.260;2022-11-15T09:16:25;12.70;99.90
19025;DHT22;9645;51.448;6.260;2022-11-15T09:18:52;12.70;99.90
19025;DHT22;9645;51.448;6.260;2022-11-15T09:21:19;13.10;99.90
19025;DHT22;9645;51.448;6.260;2022-11-15T09:23:46;13.60;99.90
19025;DHT22;9645;51.448;6.260;2022-11-15T09:26:15;14.50;99.90
19025;DHT22;9645;51.448;6.260;2022-11-15T09:28:42;15.30;99.90
19025;DHT22;9645;51.448;6.260;2022-11-15T09:31:09;16.10;99.90
19025;DHT22;9645;51.448;6.260;2022-11-15T09:33:36;16.90;99.90
19025;DHT22;9645;51.448;6.260;2022-11-15T09:36:06;17.80;5.10
19025;DHT22;9645;51.448;6.260;2022-11-15T09:38:34;18.20;1.00
19025;DHT22;9645;51.448;6.260;2022-11-15T09:41:30;18.20;99.90
19025;DHT22;9645;51.448;6.260;2022-11-15T09:44:09;18.00;1.00
19025;DHT22;9645;51.448;6.260;2022-11-15T09:46:46;18.10;1.00
19025;DHT22;9645;51.448;6.260;2022-11-15T10:24:45;21.70;99.90
19025;DHT22;9645;51.448;6.260;2022-11-15T10:27:16;21.80;99.90
19025;DHT22;9645;51.448;6.260;2022-11-15T10:29:45;22.50;99.90
19025;DHT22;9645;51.448;6.260;2022-11-15T10:32:13;22.70;99.90
19025;DHT22;9645;51.448;6.260;2022-11-15T10:34:41;23.10;99.90
19025;DHT22;9645;51.448;6.260;2022-11-15T10:37:08;23.00;99.90
19025;DHT22;9645;51.448;6.260;2022-11-15T10:39:35;22.40;99.90
19025;DHT22;9645;51.448;6.260;2022-11-15T10:42:17;22.20;99.90
19025;DHT22;9645;51.448;6.260;2022-11-15T10:44:45;22.20;99.90
19025;DHT22;9645;51.448;6.260;2022-11-15T10:47:33;22.30;99.90
19025;DHT22;9645;51.448;6.260;2022-11-15T10:50:03;22.10;99.90
19025;DHT22;9645;51.448;6.260;2022-11-15T10:52:33;21.90;99.90
19025;DHT22;9645;51.448;6.260;2022-11-15T10:55:05;22.10;99.90
19025;DHT22;9645;51.448;6.260;2022-11-15T10:57:37;22.30;99.90
19025;DHT22;9645;51.448;6.260;2022-11-15T11:00:06;22.90;99.90
19025;DHT22;9645;51.448;6.260;2022-11-15T11:02:35;23.00;99.90
19025;DHT22;9645;51.448;6.260;2022-11-15T11:05:06;22.70;99.90
19025;DHT22;9645;51.448;6.260;2022-11-15T11:07:34;22.70;99.90
19025;DHT22;9645;51.448;6.260;2022-11-15T11:10:05;22.40;99.90
19025;DHT22;9645;51.448;6.260;2022-11-15T11:12:45;22.00;99.90
19025;DHT22;9645;51.448;6.260;2022-11-15T11:15:14;21.40;99.90
19025;DHT22;9645;51.448;6.260;2022-11-15T11:17:52;20.50;99.90
19025;DHT22;9645;51.448;6.260;2022-11-15T11:20:26;20.10;1.00
19025;DHT22;9645;51.448;6.260;2022-11-15T11:23:10;19.60;99.90
19025;DHT22;9645;51.448;6.260;2022-11-15T11:25:48;19.30;1.00
19025;DHT22;9645;51.448;6.260;2022-11-15T11:28:28;19.10;1.00
19025;DHT22;9645;51.448;6.260;2022-11-15T11:31:12;18.60;1.00
19025;DHT22;9645;51.448;6.260;2022-11-15T11:33:44;18.70;1.00
19025;DHT22;9645;51.448;6.260;2022-11-15T11:36:21;19.00;1.00
19025;DHT22;9645;51.448;6.260;2022-11-15T11:38:56;19.20;99.90
19025;DHT22;9645;51.448;6.260;2022-11-15T11:41:46;19.50;99.90
19025;DHT22;9645;51.448;6.260;2022-11-15T11:44:32;20.40;99.90
19025;DHT22;9645;51.448;6.260;2022-11-15T11:47:01;21.30;99.90
19025;DHT22;9645;51.448;6.260;2022-11-15T11:49:46;22.10;99.90
19025;DHT22;9645;51.448;6.260;2022-11-15T11:52:17;22.60;99.90
19025;DHT22;9645;51.448;6.260;2022-11-15T11:54:55;22.50;99.90
19025;DHT22;9645;51.448;6.260;2022-11-15T11:57:32;22.50;99.90
19025;DHT22;9645;51.448;6.260;2022-11-15T12:00:04;22.30;99.90
19025;DHT22;9645;51.448;6.260;2022-11-15T12:02:36;22.80;99.90
19025;DHT22;9645;51.448;6.260;2022-11-15T12:05:13;22.60;99.90
19025;DHT22;9645;51.448;6.260;2022-11-15T12:07:43;22.00;99.90
19025;DHT22;9645;51.448;6.260;2022-11-15T12:10:19;21.90;99.90
19025;DHT22;9645;51.448;6.260;2022-11-15T12:12:54;21.40;99.90
19025;DHT22;9645;51.448;6.260;2022-11-15T12:15:25;21.30;99.90
19025;DHT22;9645;51.448;6.260;2022-11-15T12:17:54;21.80;99.90
19025;DHT22;9645;51.448;6.260;2022-11-15T12:20:25;22.10;99.90
19025;DHT22;9645;51.448;6.260;2022-11-15T12:23:00;21.60;99.90
19025;DHT22;9645;51.448;6.260;2022-11-15T12:25:32;20.80;99.90
19025;DHT22;9645;51.448;6.260;2022-11-15T12:28:07;19.70;99.90
19025;DHT22;9645;51.448;6.260;2022-11-15T12:30:45;18.90;99.90
19025;DHT22;9645;51.448;6.260;2022-11-15T12:33:32;18.30;99.90
19025;DHT22;9645;51.448;6.260;2022-11-15T12:36:02;18.00;1.00
19025;DHT22;9645;51.448;6.260;2022-11-15T12:38:57;17.80;1.00
19025;DHT22;9645;51.448;6.260;2022-11-15T12:41:26;17.40;1.00
19025;DHT22;9645;51.448;6.260;2022-11-15T12:43:54;17.00;1.00
19025;DHT22;9645;51.448;6.260;2022-11-15T12:47:01;16.70;1.00
19025;DHT22;9645;51.448;6.260;2022-11-15T12:49:47;16.60;1.00
19025;DHT22;9645;51.448;6.260;2022-11-15T12:52:14;16.60;1.00
19025;DHT22;9645;51.448;6.260;2022-11-15T12:54:54;16.40;1.00
19025;DHT22;9645;51.448;6.260;2022-11-15T12:57:42;16.30;1.00
19025;DHT22;9645;51.448;6.260;2022-11-15T13:00:39;16.20;1.00
19025;DHT22;9645;51.448;6.260;2022-11-15T13:03:21;15.90;1.00
19025;DHT22;9645;51.448;6.260;2022-11-15T13:06:09;15.80;1.00
19025;DHT22;9645;51.448;6.260;2022-11-15T13:08:42;15.80;1.00
19025;DHT22;9645;51.448;6.260;2022-11-15T13:11:52;15.70;1.00
19025;DHT22;9645;51.448;6.260;2022-11-15T13:15:00;15.60;1.00
19025;DHT22;9645;51.448;6.260;2022-11-15T13:17:49;15.50;1.00
19025;DHT22;9645;51.448;6.260;2022-11-15T13:20:49;15.50;99.90
19025;DHT22;9645;51.448;6.260;2022-11-15T13:23:31;15.40;99.90
19025;DHT22;9645;51.448;6.260;2022-11-15T13:26:14;15.40;99.90
19025;DHT22;9645;51.448;6.260;2022-11-15T13:29:19;15.60;99.90
19025;DHT22;9645;51.448;6.260;2022-11-15T13:32:20;15.60;99.90
19025;DHT22;9645;51.448;6.260;2022-11-15T13:34:56;15.50;99.90
19025;DHT22;9645;51.448;6.260;2022-11-15T13:41:52;15.40;99.90
19025;DHT22;9645;51.448;6.260;2022-11-15T13:44:38;15.20;1.00
19025;DHT22;9645;51.448;6.260;2022-11-15T13:47:18;15.10;1.00
19025;DHT22;9645;51.448;6.260;2022-11-15T13:50:52;15.10;1.00
19025;DHT22;9645;51.448;6.260;2022-11-15T13:53:12;14.90;1.00
19025;DHT22;9645;51.448;6.260;2022-11-15T13:55:46;14.80;1.00
19025;DHT22;9645;51.448;6.260;2022-11-15T13:58:49;14.70;1.00
19025;DHT22;9645;51.448;6.260;2022-11-15T14:01:40;14.70;1.00
19025;DHT22;9645;51.448;6.260;2022-11-15T14:04:23;14.70;1.00
19025;DHT22;9645;51.448;6.260;2022-11-15T14:07:13;14.60;1.00
19025;DHT22;9645;51.448;6.260;2022-11-15T14:09:48;14.50;99.90
19025;DHT22;9645;51.448;6.260;2022-11-15T14:12:49;14.40;1.00
19025;DHT22;9645;51.448;6.260;2022-11-15T14:15:54;14.40;1.00
19025;DHT22;9645;51.448;6.260;2022-11-15T14:19:34;14.30;1.00
19025;DHT22;9645;51.448;6.260;2022-11-15T14:25:33;14.20;99.90
19025;DHT22;9645;51.448;6.260;2022-11-15T14:28:40;14.10;1.00
19025;DHT22;9645;51.448;6.260;2022-11-15T14:35:00;13.90;1.00
19025;DHT22;9645;51.448;6.260;2022-11-15T14:38:40;13.90;1.00
19025;DHT22;9645;51.448;6.260;2022-11-15T14:44:26;13.80;1.00
19025;DHT22;9645;51.448;6.260;2022-11-15T14:51:08;13.70;1.00
19025;DHT22;9645;51.448;6.260;2022-11-15T14:53:34;13.60;1.00
19025;DHT22;9645;51.448;6.260;2022-11-15T14:56:27;13.60;1.00
19025;DHT22;9645;51.448;6.260;2022-11-15T14:59:14;13.60;1.00
19025;DHT22;9645;51.448;6.260;2022-11-15T15:02:22;13.60;1.00
19025;DHT22;9645;51.448;6.260;2022-11-15T15:05:16;13.60;1.00
19025;DHT22;9645;51.448;6.260;2022-11-15T15:08:19;13.50;1.70
19025;DHT22;9645;51.448;6.260;2022-11-15T15:10:51;13.50;18.80
19025;DHT22;9645;51.448;6.260;2022-11-15T15:13:33;13.50;23.30
19025;DHT22;9645;51.448;6.260;2022-11-15T15:16:19;13.50;36.50
19025;DHT22;9645;51.448;6.260;2022-11-15T15:19:06;13.40;43.20
19025;DHT22;9645;51.448;6.260;2022-11-15T15:22:01;13.40;55.70
19025;DHT22;9645;51.448;6.260;2022-11-15T15:24:47;13.40;72.30
19025;DHT22;9645;51.448;6.260;2022-11-15T15:27:20;13.40;59.90
19025;DHT22;9645;51.448;6.260;2022-11-15T15:29:50;13.40;69.00
19025;DHT22;9645;51.448;6.260;2022-11-15T15:32:28;13.40;64.60
19025;DHT22;9645;51.448;6.260;2022-11-15T15:35:04;13.30;80.90
19025;DHT22;9645;51.448;6.260;2022-11-15T15:40:31;13.20;99.90
19025;DHT22;9645;51.448;6.260;2022-11-15T15:42:58;13.20;99.90
19025;DHT22;9645;51.448;6.260;2022-11-15T15:45:25;13.20;99.90
19025;DHT22;9645;51.448;6.260;2022-11-15T15:47:53;13.20;99.90
19025;DHT22;9645;51.448;6.260;2022-11-15T15:50:23;13.10;99.90
19025;DHT22;9645;51.448;6.260;2022-11-15T15:52:51;13.10;99.90
19025;DHT22;9645;51.448;6.260;2022-11-15T15:55:18;13.10;99.90
19025;DHT22;9645;51.448;6.260;2022-11-15T15:57:47;13.10;99.90
19025;DHT22;9645;51.448;6.260;2022-11-15T16:00:15;13.10;99.90
19025;DHT22;9645;51.448;6.260;2022-11-15T16:02:41;13.20;99.90
19025;DHT22;9645;51.448;6.260;2022-11-15T16:05:09;13.10;99.90
19025;DHT22;9645;51.448;6.260;2022-11-15T16:07:37;13.20;99.90
19025;DHT22;9645;51.448;6.260;2022-11-15T16:10:16;13.10;99.90
19025;DHT22;9645;51.448;6.260;2022-11-15T16:12:44;13.10;99.90
19025;DHT22;9645;51.448;6.260;2022-11-15T16:15:12;13.10;99.90
19025;DHT22;9645;51.448;6.260;2022-11-15T16:17:44;13.10;99.90
19025;DHT22;9645;51.448;6.260;2022-11-15T16:20:30;13.10;99.90
19025;DHT22;9645;51.448;6.260;2022-11-15T16:22:58;13.10;99.90
19025;DHT22;9645;51.448;6.260;2022-11-15T16:25:25;13.10;99.90
19025;DHT22;9645;51.448;6.260;2022-11-15T16:27:52;13.10;99.90
19025;DHT22;9645;51.448;6.260;2022-11-15T16:30:22;13.10;99.90
19025;DHT22;9645;51.448;6.260;2022-11-15T16:32:49;13.10;99.90
19025;DHT22;9645;51.448;6.260;2022-11-15T16:35:16;13.10;99.90
19025;DHT22;9645;51.448;6.260;2022-11-15T16:37:44;13.10;99.90
19025;DHT22;9645;51.448;6.260;2022-11-15T16:40:24;13.10;99.90
19025;DHT22;9645;51.448;6.260;2022-11-15T16:42:52;13.10;99.90
19025;DHT22;9645;51.448;6.260;2022-11-15T16:45:22;13.00;99.90
19025;DHT22;9645;51.448;6.260;2022-11-15T16:47:49;13.00;99.90
19025;DHT22;9645;51.448;6.260;2022-11-15T16:50:20;13.00;99.90
19025;DHT22;9645;51.448;6.260;2022-11-15T16:52:50;13.00;99.90
19025;DHT22;9645;51.448;6.260;2022-11-15T16:55:17;13.00;99.90
19025;DHT22;9645;51.448;6.260;2022-11-15T16:57:44;12.90;99.90
19025;DHT22;9645;51.448;6.260;2022-11-15T17:00:12;13.00;99.90
19025;DHT22;9645;51.448;6.260;2022-11-15T17:02:42;13.00;99.90
19025;DHT22;9645;51.448;6.260;2022-11-15T17:05:10;13.00;99.90
19025;DHT22;9645;51.448;6.260;2022-11-15T17:07:37;13.00;99.90
19025;DHT22;9645;51.448;6.260;2022-11-15T17:10:05;13.00;99.90
19025;DHT22;9645;51.448;6.260;2022-11-15T17:12:34;13.00;99.90
19025;DHT22;9645;51.448;6.260;2022-11-15T17:15:01;13.00;99.90
19025;DHT22;9645;51.448;6.260;2022-11-15T17:17:29;13.00;99.90
19025;DHT22;9645;51.448;6.260;2022-11-15T17:19:57;13.10;99.90
19025;DHT22;9645;51.448;6.260;2022-11-15T17:22:24;13.10;99.90
19025;DHT22;9645;51.448;6.260;2022-11-15T17:24:51;13.10;99.90
19025;DHT22;9645;51.448;6.260;2022-11-15T17:27:18;13.10;99.90
19025;DHT22;9645;51.448;6.260;2022-11-15T17:29:46;13.10;99.90